DLH965 EGPH-EDDF
Flight info
| Callsign | DLH965 |
|---|---|
| Flight time | 1h 30m |
| Altitude | 39000 |
| Route | TLA Y96 HAVEN DCT OTBUN DCT AGPED DCT GODOS DCT AMGOD DCT SOGPO DCT DIXAT |
| Aircraft | A320/M-SDE3FGHIRWY/LB1 |
Departure
| Time | 2026-05-05 15:44 |
|---|---|
| Airport | Edinburgh Airport (EGPH) |
Arrival
| Time | 2026-05-05 17:14 |
|---|---|
| Airport | Frankfurt Main Airport (EDDF) |
| Time | Latitude | Longitude | Altitude | Speed | Heading |
|---|---|---|---|---|---|
| 2026-05-05 15:26 | 55.94801 | -3.36638 | 117 ft | 0 kts | 89° |
| 2026-05-05 15:35 | 55.94800 | -3.36650 | 116 ft | 3 kts | 89° |
| 2026-05-05 15:36 | 55.94800 | -3.36692 | 114 ft | 3 kts | 88° |
| 2026-05-05 15:36 | 55.94800 | -3.36727 | 112 ft | 3 kts | 80° |
| 2026-05-05 15:36 | 55.94792 | -3.36762 | 114 ft | 3 kts | 28° |
| 2026-05-05 15:36 | 55.94772 | -3.36767 | 114 ft | 3 kts | 335° |
| 2026-05-05 15:37 | 55.94766 | -3.36762 | 115 ft | 0 kts | 329° |
| 2026-05-05 15:38 | 55.94769 | -3.36766 | 113 ft | 4 kts | 329° |
| 2026-05-05 15:39 | 55.94831 | -3.36779 | 116 ft | 10 kts | 1° |
| 2026-05-05 15:39 | 55.94895 | -3.36800 | 113 ft | 9 kts | 328° |
| 2026-05-05 15:39 | 55.94925 | -3.36899 | 113 ft | 14 kts | 252° |
| 2026-05-05 15:39 | 55.94874 | -3.37049 | 112 ft | 14 kts | 238° |
| 2026-05-05 15:40 | 55.94827 | -3.37189 | 114 ft | 13 kts | 239° |
| 2026-05-05 15:40 | 55.94771 | -3.37354 | 111 ft | 17 kts | 239° |
| 2026-05-05 15:40 | 55.94711 | -3.37531 | 115 ft | 16 kts | 239° |
| 2026-05-05 15:40 | 55.94655 | -3.37697 | 114 ft | 15 kts | 239° |
| 2026-05-05 15:41 | 55.94602 | -3.37852 | 112 ft | 14 kts | 239° |
| 2026-05-05 15:41 | 55.94554 | -3.37996 | 111 ft | 13 kts | 239° |
| 2026-05-05 15:41 | 55.94500 | -3.38156 | 113 ft | 21 kts | 239° |
| 2026-05-05 15:41 | 55.94427 | -3.38367 | 114 ft | 19 kts | 238° |
| 2026-05-05 15:42 | 55.94360 | -3.38564 | 114 ft | 18 kts | 239° |
| 2026-05-05 15:42 | 55.94298 | -3.38747 | 111 ft | 17 kts | 239° |
| 2026-05-05 15:42 | 55.94311 | -3.38893 | 114 ft | 13 kts | 327° |
| 2026-05-05 15:42 | 55.94392 | -3.38971 | 114 ft | 13 kts | 344° |
| 2026-05-05 15:43 | 55.94433 | -3.38918 | 114 ft | 0 kts | 58° |
| 2026-05-05 15:43 | 55.94455 | -3.38856 | 112 ft | 22 kts | 58° |
| 2026-05-05 15:43 | 55.94706 | -3.38109 | 112 ft | 115 kts | 59° |
| 2026-05-05 15:43 | 55.95232 | -3.36569 | 460 ft | 157 kts | 60° |
| 2026-05-05 15:44 | 55.95810 | -3.34857 | 1537 ft | 168 kts | 60° |
| 2026-05-05 15:44 | 55.96609 | -3.33204 | 2145 ft | 187 kts | 46° |
| 2026-05-05 15:44 | 55.97650 | -3.31500 | 2520 ft | 218 kts | 44° |
| 2026-05-05 15:44 | 55.98843 | -3.29613 | 3191 ft | 237 kts | 43° |
| 2026-05-05 15:45 | 56.00105 | -3.27640 | 4126 ft | 245 kts | 41° |
| 2026-05-05 15:45 | 56.01400 | -3.25609 | 5091 ft | 252 kts | 44° |
| 2026-05-05 15:45 | 56.02371 | -3.22938 | 5897 ft | 266 kts | 70° |
| 2026-05-05 15:45 | 56.02538 | -3.19629 | 6720 ft | 280 kts | 98° |
| 2026-05-05 15:46 | 56.01722 | -3.16451 | 7522 ft | 289 kts | 131° |
| 2026-05-05 15:46 | 56.00077 | -3.14423 | 8365 ft | 292 kts | 164° |
| 2026-05-05 15:46 | 55.98089 | -3.13712 | 9292 ft | 293 kts | 174° |
| 2026-05-05 15:46 | 55.96055 | -3.13160 | 10198 ft | 298 kts | 175° |
| 2026-05-05 15:47 | 55.93936 | -3.12609 | 10630 ft | 320 kts | 175° |
| 2026-05-05 15:47 | 55.91653 | -3.12021 | 10927 ft | 344 kts | 174° |
| 2026-05-05 15:47 | 55.89222 | -3.11380 | 11388 ft | 358 kts | 174° |
| 2026-05-05 15:47 | 55.86737 | -3.10706 | 12126 ft | 364 kts | 174° |
| 2026-05-05 15:48 | 55.84224 | -3.10013 | 12926 ft | 368 kts | 174° |
| 2026-05-05 15:48 | 55.81683 | -3.09306 | 13722 ft | 371 kts | 174° |
| 2026-05-05 15:48 | 55.79117 | -3.08592 | 14439 ft | 375 kts | 174° |
| 2026-05-05 15:48 | 55.76525 | -3.07879 | 15137 ft | 379 kts | 174° |
| 2026-05-05 15:49 | 55.73910 | -3.07168 | 15829 ft | 382 kts | 174° |
| 2026-05-05 15:49 | 55.71269 | -3.06450 | 16508 ft | 386 kts | 174° |
| 2026-05-05 15:49 | 55.68609 | -3.05724 | 17181 ft | 389 kts | 174° |
| 2026-05-05 15:49 | 55.65919 | -3.04992 | 17837 ft | 392 kts | 174° |
| 2026-05-05 15:50 | 55.63210 | -3.04256 | 18487 ft | 396 kts | 174° |
| 2026-05-05 15:50 | 55.60478 | -3.03513 | 19047 ft | 399 kts | 174° |
| 2026-05-05 15:50 | 55.57727 | -3.02768 | 19618 ft | 402 kts | 174° |
| 2026-05-05 15:50 | 55.54955 | -3.02021 | 20192 ft | 404 kts | 174° |
| 2026-05-05 15:51 | 55.52169 | -3.01211 | 20735 ft | 409 kts | 170° |
| 2026-05-05 15:51 | 55.49444 | -2.99641 | 21255 ft | 415 kts | 158° |
| 2026-05-05 15:51 | 55.46919 | -2.97111 | 21772 ft | 422 kts | 146° |
| 2026-05-05 15:51 | 55.44699 | -2.93687 | 22302 ft | 428 kts | 134° |
| 2026-05-05 15:52 | 55.42888 | -2.89475 | 22808 ft | 434 kts | 122° |
| 2026-05-05 15:52 | 55.41406 | -2.84836 | 23317 ft | 437 kts | 120° |
| 2026-05-05 15:52 | 55.39921 | -2.80152 | 23799 ft | 440 kts | 121° |
| 2026-05-05 15:52 | 55.38419 | -2.75441 | 24202 ft | 442 kts | 121° |
| 2026-05-05 15:53 | 55.36928 | -2.70793 | 24606 ft | 444 kts | 121° |
| 2026-05-05 15:53 | 55.35380 | -2.65973 | 25001 ft | 447 kts | 121° |
| 2026-05-05 15:53 | 55.33843 | -2.61202 | 25406 ft | 449 kts | 121° |
| 2026-05-05 15:53 | 55.32316 | -2.56477 | 25811 ft | 452 kts | 121° |
| 2026-05-05 15:54 | 55.30758 | -2.51671 | 26197 ft | 454 kts | 121° |
| 2026-05-05 15:54 | 55.29188 | -2.46839 | 26581 ft | 456 kts | 121° |
| 2026-05-05 15:54 | 55.27610 | -2.41989 | 26965 ft | 459 kts | 122° |
| 2026-05-05 15:54 | 55.26024 | -2.37108 | 27332 ft | 462 kts | 122° |
| 2026-05-05 15:55 | 55.24431 | -2.32207 | 27681 ft | 464 kts | 122° |
| 2026-05-05 15:55 | 55.22826 | -2.27271 | 28023 ft | 467 kts | 122° |
| 2026-05-05 15:55 | 55.21212 | -2.22325 | 28347 ft | 469 kts | 122° |
| 2026-05-05 15:55 | 55.19583 | -2.17345 | 28668 ft | 472 kts | 122° |
| 2026-05-05 15:56 | 55.17943 | -2.12355 | 28992 ft | 474 kts | 122° |
| 2026-05-05 15:56 | 55.16291 | -2.07345 | 29323 ft | 477 kts | 122° |
| 2026-05-05 15:56 | 55.14629 | -2.02313 | 29630 ft | 479 kts | 123° |
| 2026-05-05 15:56 | 55.12957 | -1.97257 | 29983 ft | 481 kts | 123° |
| 2026-05-05 15:57 | 55.11294 | -1.92201 | 30389 ft | 480 kts | 122° |
| 2026-05-05 15:57 | 55.09669 | -1.87110 | 30772 ft | 479 kts | 122° |
| 2026-05-05 15:57 | 55.08080 | -1.82002 | 31155 ft | 479 kts | 121° |
| 2026-05-05 15:57 | 55.06508 | -1.76888 | 31537 ft | 478 kts | 121° |
| 2026-05-05 15:58 | 55.04939 | -1.71775 | 31921 ft | 477 kts | 121° |
| 2026-05-05 15:58 | 55.03369 | -1.66696 | 32323 ft | 476 kts | 121° |
| 2026-05-05 15:58 | 55.01786 | -1.61634 | 32714 ft | 474 kts | 122° |
| 2026-05-05 15:58 | 55.00198 | -1.56604 | 33108 ft | 473 kts | 122° |
| 2026-05-05 15:59 | 54.98607 | -1.51597 | 33494 ft | 472 kts | 122° |
| 2026-05-05 15:59 | 54.97015 | -1.46603 | 33885 ft | 471 kts | 122° |
| 2026-05-05 15:59 | 54.95423 | -1.41622 | 34246 ft | 470 kts | 122° |
| 2026-05-05 15:59 | 54.93839 | -1.36658 | 34565 ft | 469 kts | 122° |
| 2026-05-05 16:00 | 54.92275 | -1.31762 | 34844 ft | 469 kts | 122° |
| 2026-05-05 16:00 | 54.90669 | -1.26745 | 35152 ft | 469 kts | 122° |
| 2026-05-05 16:00 | 54.89103 | -1.21864 | 35429 ft | 469 kts | 122° |
| 2026-05-05 16:00 | 54.87518 | -1.16918 | 35702 ft | 469 kts | 122° |
| 2026-05-05 16:01 | 54.85932 | -1.11976 | 35965 ft | 469 kts | 122° |
| 2026-05-05 16:01 | 54.84342 | -1.07029 | 36229 ft | 469 kts | 122° |
| 2026-05-05 16:01 | 54.82746 | -1.02095 | 36492 ft | 469 kts | 122° |
| 2026-05-05 16:01 | 54.81128 | -0.97105 | 36755 ft | 468 kts | 122° |
| 2026-05-05 16:02 | 54.79553 | -0.92255 | 37015 ft | 468 kts | 121° |
| 2026-05-05 16:02 | 54.77959 | -0.87344 | 37252 ft | 468 kts | 121° |
| 2026-05-05 16:02 | 54.76363 | -0.82435 | 37491 ft | 468 kts | 121° |
| 2026-05-05 16:02 | 54.74763 | -0.77529 | 37727 ft | 468 kts | 121° |
| 2026-05-05 16:03 | 54.73163 | -0.72639 | 37964 ft | 467 kts | 121° |
| 2026-05-05 16:03 | 54.71557 | -0.67736 | 38214 ft | 467 kts | 121° |
| 2026-05-05 16:03 | 54.69953 | -0.62856 | 38452 ft | 467 kts | 121° |
| 2026-05-05 16:03 | 54.68347 | -0.57983 | 38695 ft | 466 kts | 121° |
| 2026-05-05 16:04 | 54.66739 | -0.53118 | 38858 ft | 466 kts | 121° |
| 2026-05-05 16:04 | 54.65132 | -0.48263 | 38986 ft | 467 kts | 121° |
| 2026-05-05 16:04 | 54.63520 | -0.43392 | 39024 ft | 466 kts | 121° |
| 2026-05-05 16:05 | 54.60300 | -0.33685 | 39026 ft | 466 kts | 121° |
| 2026-05-05 16:05 | 54.57076 | -0.24003 | 39025 ft | 465 kts | 121° |
| 2026-05-05 16:06 | 54.53845 | -0.14346 | 39020 ft | 465 kts | 121° |
| 2026-05-05 16:06 | 54.50603 | -0.04715 | 39016 ft | 465 kts | 122° |
| 2026-05-05 16:07 | 54.47362 | 0.04900 | 39022 ft | 465 kts | 122° |
| 2026-05-05 16:07 | 54.44113 | 0.14516 | 39019 ft | 465 kts | 122° |
| 2026-05-05 16:08 | 54.40851 | 0.24096 | 39025 ft | 465 kts | 122° |
| 2026-05-05 16:08 | 54.37580 | 0.33663 | 39020 ft | 465 kts | 122° |
| 2026-05-05 16:09 | 54.34307 | 0.43225 | 39020 ft | 465 kts | 122° |
| 2026-05-05 16:09 | 54.31022 | 0.52771 | 39020 ft | 465 kts | 122° |
| 2026-05-05 16:10 | 54.27737 | 0.62302 | 39018 ft | 465 kts | 122° |
| 2026-05-05 16:10 | 54.24443 | 0.71809 | 39014 ft | 464 kts | 122° |
| 2026-05-05 16:11 | 54.21156 | 0.81229 | 39018 ft | 464 kts | 122° |
| 2026-05-05 16:12 | 54.14536 | 1.00139 | 39018 ft | 464 kts | 122° |
| 2026-05-05 16:13 | 54.06226 | 1.23671 | 39006 ft | 463 kts | 123° |
| 2026-05-05 16:13 | 54.02893 | 1.33035 | 39005 ft | 463 kts | 123° |
| 2026-05-05 16:14 | 53.96217 | 1.51731 | 38995 ft | 462 kts | 123° |
| 2026-05-05 16:15 | 53.89516 | 1.70338 | 38994 ft | 462 kts | 123° |
| 2026-05-05 16:16 | 53.82804 | 1.88869 | 39000 ft | 461 kts | 123° |
| 2026-05-05 16:17 | 53.78310 | 2.01161 | 38998 ft | 461 kts | 123° |
| 2026-05-05 16:18 | 53.73241 | 2.14963 | 39000 ft | 461 kts | 124° |
| 2026-05-05 16:19 | 53.68154 | 2.28741 | 39007 ft | 461 kts | 124° |
| 2026-05-05 16:19 | 53.63052 | 2.42467 | 39000 ft | 460 kts | 124° |
| 2026-05-05 16:20 | 53.56245 | 2.60706 | 39001 ft | 460 kts | 124° |
| 2026-05-05 16:22 | 53.47693 | 2.83412 | 39002 ft | 460 kts | 124° |
| 2026-05-05 16:23 | 53.40834 | 3.01495 | 39000 ft | 459 kts | 124° |
| 2026-05-05 16:23 | 53.35674 | 3.15011 | 38998 ft | 459 kts | 125° |
| 2026-05-05 16:24 | 53.32223 | 3.23991 | 38996 ft | 459 kts | 125° |
| 2026-05-05 16:25 | 53.27020 | 3.37413 | 38993 ft | 458 kts | 128° |
| 2026-05-05 16:25 | 53.22586 | 3.44864 | 38993 ft | 451 kts | 147° |
| 2026-05-05 16:25 | 53.19936 | 3.47622 | 38994 ft | 448 kts | 153° |
| 2026-05-05 16:26 | 53.09054 | 3.57804 | 38989 ft | 449 kts | 153° |
| 2026-05-05 16:27 | 53.03601 | 3.62876 | 38990 ft | 449 kts | 153° |
| 2026-05-05 16:27 | 52.98393 | 3.68576 | 38989 ft | 452 kts | 140° |
| 2026-05-05 16:28 | 52.94443 | 3.76740 | 38980 ft | 457 kts | 124° |
| 2026-05-05 16:28 | 52.91098 | 3.85701 | 38973 ft | 457 kts | 124° |
| 2026-05-05 16:29 | 52.87732 | 3.94638 | 38966 ft | 457 kts | 124° |
| 2026-05-05 16:29 | 52.84354 | 4.03559 | 38967 ft | 457 kts | 124° |
| 2026-05-05 16:30 | 52.80971 | 4.12475 | 38959 ft | 457 kts | 124° |
| 2026-05-05 16:30 | 52.77577 | 4.21368 | 38959 ft | 457 kts | 124° |
| 2026-05-05 16:31 | 52.74184 | 4.30241 | 38955 ft | 457 kts | 125° |
| 2026-05-05 16:31 | 52.70783 | 4.39103 | 38953 ft | 457 kts | 125° |
| 2026-05-05 16:32 | 52.67370 | 4.47967 | 38949 ft | 457 kts | 125° |
| 2026-05-05 16:32 | 52.63961 | 4.56804 | 38947 ft | 457 kts | 125° |
| 2026-05-05 16:33 | 52.60537 | 4.65634 | 38935 ft | 457 kts | 125° |
| 2026-05-05 16:33 | 52.57107 | 4.74440 | 38936 ft | 457 kts | 125° |
| 2026-05-05 16:34 | 52.53673 | 4.83241 | 38939 ft | 458 kts | 126° |
| 2026-05-05 16:34 | 52.50232 | 4.92029 | 38933 ft | 457 kts | 126° |
| 2026-05-05 16:35 | 52.46784 | 5.00806 | 38931 ft | 457 kts | 126° |
| 2026-05-05 16:35 | 52.43331 | 5.09571 | 38926 ft | 457 kts | 126° |
| 2026-05-05 16:36 | 52.39866 | 5.18314 | 38927 ft | 457 kts | 126° |
| 2026-05-05 16:36 | 52.36399 | 5.27049 | 38929 ft | 457 kts | 126° |
| 2026-05-05 16:37 | 52.32926 | 5.35774 | 38928 ft | 457 kts | 126° |
| 2026-05-05 16:37 | 52.29442 | 5.44468 | 38930 ft | 457 kts | 126° |
| 2026-05-05 16:38 | 52.25953 | 5.53158 | 38924 ft | 458 kts | 126° |
| 2026-05-05 16:38 | 52.22460 | 5.61842 | 38909 ft | 458 kts | 126° |
| 2026-05-05 16:39 | 52.18962 | 5.70504 | 38911 ft | 457 kts | 126° |
| 2026-05-05 16:39 | 52.15452 | 5.79149 | 38907 ft | 457 kts | 127° |
| 2026-05-05 16:40 | 52.11937 | 5.87788 | 38907 ft | 458 kts | 127° |
| 2026-05-05 16:40 | 52.08420 | 5.96412 | 38913 ft | 457 kts | 127° |
| 2026-05-05 16:41 | 52.04903 | 6.05024 | 38902 ft | 457 kts | 127° |
| 2026-05-05 16:41 | 52.01370 | 6.13614 | 38912 ft | 457 kts | 127° |
| 2026-05-05 16:42 | 51.97812 | 6.22184 | 38907 ft | 456 kts | 130° |
| 2026-05-05 16:42 | 51.93412 | 6.29407 | 38905 ft | 448 kts | 144° |
| 2026-05-05 16:43 | 51.88560 | 6.35734 | 38907 ft | 449 kts | 144° |
| 2026-05-05 16:43 | 51.83696 | 6.42090 | 38901 ft | 449 kts | 144° |
| 2026-05-05 16:44 | 51.78832 | 6.48423 | 38890 ft | 449 kts | 144° |
| 2026-05-05 16:44 | 51.73967 | 6.54735 | 38895 ft | 449 kts | 144° |
| 2026-05-05 16:45 | 51.69098 | 6.61036 | 38893 ft | 449 kts | 145° |
| 2026-05-05 16:45 | 51.64227 | 6.67327 | 38889 ft | 449 kts | 144° |
| 2026-05-05 16:46 | 51.59358 | 6.73610 | 38880 ft | 449 kts | 145° |
| 2026-05-05 16:46 | 51.54479 | 6.79861 | 38876 ft | 448 kts | 145° |
| 2026-05-05 16:47 | 51.49596 | 6.86099 | 38873 ft | 448 kts | 145° |
| 2026-05-05 16:47 | 51.44709 | 6.92322 | 38877 ft | 448 kts | 145° |
| 2026-05-05 16:48 | 51.39822 | 6.98535 | 38372 ft | 452 kts | 145° |
| 2026-05-05 16:48 | 51.37323 | 7.01698 | 37300 ft | 459 kts | 146° |
| 2026-05-05 16:48 | 51.34872 | 7.04810 | 36766 ft | 454 kts | 146° |
| 2026-05-05 16:49 | 51.32395 | 7.07953 | 35944 ft | 454 kts | 146° |
| 2026-05-05 16:49 | 51.29927 | 7.11078 | 35326 ft | 451 kts | 146° |
| 2026-05-05 16:49 | 51.27453 | 7.14148 | 34542 ft | 449 kts | 150° |
| 2026-05-05 16:49 | 51.24811 | 7.16659 | 33430 ft | 437 kts | 158° |
| 2026-05-05 16:50 | 51.22092 | 7.18834 | 32005 ft | 437 kts | 158° |
| 2026-05-05 16:50 | 51.19372 | 7.20986 | 31097 ft | 436 kts | 158° |
| 2026-05-05 16:50 | 51.16648 | 7.23129 | 30113 ft | 439 kts | 158° |
| 2026-05-05 16:50 | 51.13881 | 7.25298 | 29020 ft | 446 kts | 158° |
| 2026-05-05 16:51 | 51.11099 | 7.27487 | 28047 ft | 447 kts | 157° |
| 2026-05-05 16:51 | 51.08313 | 7.29726 | 27027 ft | 449 kts | 156° |
| 2026-05-05 16:51 | 51.05540 | 7.32006 | 26024 ft | 449 kts | 156° |
| 2026-05-05 16:51 | 51.02778 | 7.34310 | 25255 ft | 445 kts | 155° |
| 2026-05-05 16:52 | 51.00067 | 7.36580 | 24724 ft | 438 kts | 155° |
| 2026-05-05 16:52 | 50.97388 | 7.38816 | 24109 ft | 433 kts | 155° |
| 2026-05-05 16:52 | 50.94732 | 7.41016 | 23514 ft | 430 kts | 155° |
| 2026-05-05 16:52 | 50.92080 | 7.43196 | 22840 ft | 426 kts | 155° |
| 2026-05-05 16:53 | 50.89454 | 7.45343 | 22263 ft | 423 kts | 155° |
| 2026-05-05 16:53 | 50.86851 | 7.47468 | 21676 ft | 419 kts | 155° |
| 2026-05-05 16:53 | 50.84269 | 7.49571 | 21096 ft | 415 kts | 155° |
| 2026-05-05 16:53 | 50.81710 | 7.51650 | 20523 ft | 412 kts | 155° |
| 2026-05-05 16:54 | 50.79172 | 7.53715 | 19949 ft | 408 kts | 155° |
| 2026-05-05 16:54 | 50.76663 | 7.55757 | 19378 ft | 404 kts | 155° |
| 2026-05-05 16:54 | 50.74172 | 7.57787 | 18824 ft | 401 kts | 155° |
| 2026-05-05 16:54 | 50.71705 | 7.59791 | 18268 ft | 398 kts | 155° |
| 2026-05-05 16:55 | 50.69252 | 7.61774 | 17669 ft | 394 kts | 155° |
| 2026-05-05 16:55 | 50.66827 | 7.63737 | 17206 ft | 391 kts | 155° |
| 2026-05-05 16:55 | 50.64412 | 7.65692 | 16738 ft | 388 kts | 155° |
| 2026-05-05 16:55 | 50.62021 | 7.67628 | 16268 ft | 385 kts | 155° |
| 2026-05-05 16:56 | 50.59649 | 7.69548 | 15801 ft | 382 kts | 155° |
| 2026-05-05 16:56 | 50.57292 | 7.71452 | 15362 ft | 379 kts | 155° |
| 2026-05-05 16:56 | 50.54953 | 7.73338 | 14944 ft | 376 kts | 155° |
| 2026-05-05 16:56 | 50.52631 | 7.75206 | 14513 ft | 374 kts | 155° |
| 2026-05-05 16:57 | 50.50327 | 7.77055 | 14091 ft | 371 kts | 155° |
| 2026-05-05 16:57 | 50.48034 | 7.78895 | 13669 ft | 369 kts | 155° |
| 2026-05-05 16:57 | 50.45758 | 7.80719 | 13219 ft | 366 kts | 155° |
| 2026-05-05 16:57 | 50.43523 | 7.82623 | 12801 ft | 365 kts | 149° |
| 2026-05-05 16:58 | 50.42151 | 7.84162 | 12293 ft | 368 kts | 143° |
| 2026-05-05 16:58 | 50.40453 | 7.87179 | 11602 ft | 372 kts | 123° |
| 2026-05-05 16:58 | 50.39499 | 7.90921 | 11163 ft | 368 kts | 109° |
| 2026-05-05 16:58 | 50.38792 | 7.94753 | 10573 ft | 365 kts | 109° |
| 2026-05-05 16:59 | 50.37893 | 7.99774 | 9937 ft | 351 kts | 109° |
| 2026-05-05 16:59 | 50.37468 | 8.02190 | 9825 ft | 331 kts | 109° |
| 2026-05-05 16:59 | 50.36895 | 8.05521 | 9816 ft | 304 kts | 109° |
| 2026-05-05 16:59 | 50.36359 | 8.08674 | 9825 ft | 298 kts | 109° |
| 2026-05-05 17:00 | 50.35832 | 8.11789 | 9830 ft | 295 kts | 109° |
| 2026-05-05 17:00 | 50.35306 | 8.14895 | 9826 ft | 295 kts | 109° |
| 2026-05-05 17:00 | 50.34783 | 8.17993 | 9832 ft | 295 kts | 109° |
| 2026-05-05 17:00 | 50.34260 | 8.21097 | 9835 ft | 295 kts | 109° |
| 2026-05-05 17:01 | 50.33738 | 8.24196 | 9834 ft | 295 kts | 109° |
| 2026-05-05 17:01 | 50.33220 | 8.27283 | 9522 ft | 292 kts | 109° |
| 2026-05-05 17:01 | 50.32713 | 8.30304 | 9140 ft | 290 kts | 109° |
| 2026-05-05 17:01 | 50.32202 | 8.33348 | 8787 ft | 288 kts | 109° |
| 2026-05-05 17:02 | 50.31691 | 8.36365 | 8411 ft | 286 kts | 109° |
| 2026-05-05 17:02 | 50.31182 | 8.39358 | 8005 ft | 284 kts | 109° |
| 2026-05-05 17:02 | 50.30676 | 8.42326 | 7615 ft | 281 kts | 109° |
| 2026-05-05 17:02 | 50.30171 | 8.45270 | 7228 ft | 279 kts | 109° |
| 2026-05-05 17:03 | 50.29662 | 8.48193 | 6925 ft | 277 kts | 109° |
| 2026-05-05 17:03 | 50.29153 | 8.51095 | 6673 ft | 277 kts | 109° |
| 2026-05-05 17:03 | 50.28641 | 8.53997 | 6433 ft | 276 kts | 109° |
| 2026-05-05 17:03 | 50.28123 | 8.56881 | 6192 ft | 275 kts | 109° |
| 2026-05-05 17:04 | 50.27596 | 8.59751 | 5934 ft | 274 kts | 109° |
| 2026-05-05 17:04 | 50.27065 | 8.62596 | 5685 ft | 272 kts | 108° |
| 2026-05-05 17:04 | 50.26525 | 8.65433 | 5428 ft | 272 kts | 109° |
| 2026-05-05 17:04 | 50.25982 | 8.68260 | 5177 ft | 271 kts | 109° |
| 2026-05-05 17:05 | 50.25439 | 8.71071 | 5007 ft | 271 kts | 109° |
| 2026-05-05 17:05 | 50.24892 | 8.73887 | 5001 ft | 271 kts | 109° |
| 2026-05-05 17:05 | 50.24340 | 8.76707 | 4997 ft | 272 kts | 109° |
| 2026-05-05 17:05 | 50.23788 | 8.79533 | 4999 ft | 271 kts | 109° |
| 2026-05-05 17:06 | 50.23242 | 8.82327 | 4993 ft | 261 kts | 109° |
| 2026-05-05 17:06 | 50.22739 | 8.84914 | 5000 ft | 243 kts | 109° |
| 2026-05-05 17:06 | 50.22251 | 8.87419 | 4998 ft | 240 kts | 109° |
| 2026-05-05 17:06 | 50.21765 | 8.89907 | 4999 ft | 240 kts | 109° |
| 2026-05-05 17:07 | 50.21186 | 8.92333 | 4992 ft | 237 kts | 125° |
| 2026-05-05 17:07 | 50.20005 | 8.94046 | 4999 ft | 233 kts | 155° |
| 2026-05-05 17:07 | 50.18496 | 8.94964 | 4999 ft | 233 kts | 165° |
| 2026-05-05 17:07 | 50.16912 | 8.95119 | 4998 ft | 230 kts | 193° |
| 2026-05-05 17:08 | 50.15419 | 8.94231 | 5001 ft | 230 kts | 211° |
| 2026-05-05 17:08 | 50.14192 | 8.92632 | 5004 ft | 232 kts | 229° |
| 2026-05-05 17:08 | 50.13366 | 8.90482 | 5002 ft | 233 kts | 248° |
| 2026-05-05 17:08 | 50.12805 | 8.88102 | 5004 ft | 234 kts | 249° |
| 2026-05-05 17:09 | 50.12249 | 8.85722 | 4819 ft | 232 kts | 249° |
| 2026-05-05 17:09 | 50.11699 | 8.83381 | 4521 ft | 225 kts | 249° |
| 2026-05-05 17:09 | 50.11170 | 8.81137 | 4213 ft | 216 kts | 249° |
| 2026-05-05 17:09 | 50.10660 | 8.78976 | 3904 ft | 209 kts | 250° |
| 2026-05-05 17:10 | 50.10172 | 8.76911 | 3641 ft | 196 kts | 250° |
| 2026-05-05 17:10 | 50.09712 | 8.74967 | 3356 ft | 186 kts | 250° |
| 2026-05-05 17:10 | 50.09276 | 8.73121 | 3101 ft | 177 kts | 250° |
| 2026-05-05 17:10 | 50.08859 | 8.71362 | 2851 ft | 174 kts | 251° |
| 2026-05-05 17:11 | 50.08449 | 8.69631 | 2628 ft | 167 kts | 251° |
| 2026-05-05 17:11 | 50.08049 | 8.67944 | 2391 ft | 165 kts | 251° |
| 2026-05-05 17:11 | 50.07652 | 8.66271 | 2143 ft | 164 kts | 252° |
| 2026-05-05 17:11 | 50.07257 | 8.64609 | 1916 ft | 164 kts | 252° |
| 2026-05-05 17:12 | 50.06868 | 8.62973 | 1673 ft | 157 kts | 252° |
| 2026-05-05 17:12 | 50.06497 | 8.61413 | 1451 ft | 151 kts | 253° |
| 2026-05-05 17:12 | 50.06141 | 8.59918 | 1273 ft | 144 kts | 253° |
| 2026-05-05 17:12 | 50.05798 | 8.58476 | 1105 ft | 140 kts | 251° |
| 2026-05-05 17:13 | 50.05461 | 8.57064 | 925 ft | 137 kts | 250° |
| 2026-05-05 17:13 | 50.05129 | 8.55666 | 724 ft | 138 kts | 251° |
| 2026-05-05 17:13 | 50.04801 | 8.54278 | 545 ft | 136 kts | 248° |
| 2026-05-05 17:13 | 50.04468 | 8.52895 | 362 ft | 134 kts | 250° |
| 2026-05-05 17:14 | 50.04204 | 8.51786 | 334 ft | 71 kts | 250° |
| 2026-05-05 17:14 | 50.04110 | 8.51386 | 329 ft | 29 kts | 250° |
| 2026-05-05 17:14 | 50.04029 | 8.51115 | 326 ft | 27 kts | 238° |
| 2026-05-05 17:14 | 50.03908 | 8.50919 | 323 ft | 20 kts | 219° |
| 2026-05-05 17:15 | 50.03823 | 8.50836 | 331 ft | 11 kts | 182° |
| 2026-05-05 17:15 | 50.03807 | 8.50842 | 332 ft | 0 kts | 160° |
| 2026-05-05 17:16 | 50.03780 | 8.50896 | 334 ft | 16 kts | 101° |
| 2026-05-05 17:16 | 50.03813 | 8.51061 | 331 ft | 14 kts | 71° |
| 2026-05-05 17:16 | 50.03843 | 8.51189 | 333 ft | 11 kts | 70° |
| 2026-05-05 17:16 | 50.03868 | 8.51291 | 331 ft | 9 kts | 69° |
| 2026-05-05 17:17 | 50.03903 | 8.51435 | 334 ft | 24 kts | 69° |
| 2026-05-05 17:17 | 50.03961 | 8.51684 | 335 ft | 25 kts | 69° |
| 2026-05-05 17:17 | 50.04015 | 8.51895 | 336 ft | 20 kts | 69° |
| 2026-05-05 17:17 | 50.04059 | 8.52079 | 339 ft | 16 kts | 70° |
| 2026-05-05 17:18 | 50.04104 | 8.52277 | 352 ft | 23 kts | 70° |
| 2026-05-05 17:18 | 50.04160 | 8.52513 | 356 ft | 23 kts | 70° |
| 2026-05-05 17:18 | 50.04213 | 8.52735 | 358 ft | 21 kts | 70° |
| 2026-05-05 17:18 | 50.04262 | 8.52940 | 357 ft | 19 kts | 69° |
| 2026-05-05 17:19 | 50.04303 | 8.53108 | 363 ft | 14 kts | 70° |
| 2026-05-05 17:19 | 50.04334 | 8.53238 | 365 ft | 17 kts | 69° |
| 2026-05-05 17:19 | 50.04377 | 8.53419 | 372 ft | 17 kts | 69° |
| 2026-05-05 17:19 | 50.04399 | 8.53565 | 375 ft | 12 kts | 84° |
| 2026-05-05 17:20 | 50.04409 | 8.53733 | 375 ft | 19 kts | 84° |
| 2026-05-05 17:20 | 50.04422 | 8.53926 | 375 ft | 17 kts | 84° |
| 2026-05-05 17:20 | 50.04433 | 8.54092 | 375 ft | 14 kts | 84° |
| 2026-05-05 17:20 | 50.04443 | 8.54255 | 375 ft | 18 kts | 84° |
| 2026-05-05 17:21 | 50.04454 | 8.54443 | 371 ft | 18 kts | 92° |
| 2026-05-05 17:21 | 50.04410 | 8.54643 | 367 ft | 21 kts | 123° |
| 2026-05-05 17:21 | 50.04307 | 8.54775 | 358 ft | 19 kts | 158° |
| 2026-05-05 17:22 | 50.04070 | 8.54908 | 356 ft | 12 kts | 159° |
| 2026-05-05 17:22 | 50.04020 | 8.54938 | 352 ft | 6 kts | 159° |
| 2026-05-05 17:22 | 50.03943 | 8.54986 | 356 ft | 18 kts | 158° |
| 2026-05-05 17:22 | 50.03850 | 8.55054 | 356 ft | 13 kts | 124° |
| 2026-05-05 17:23 | 50.03865 | 8.55182 | 350 ft | 12 kts | 69° |
| 2026-05-05 17:23 | 50.03892 | 8.55292 | 354 ft | 11 kts | 70° |
| 2026-05-05 17:23 | 50.03930 | 8.55453 | 357 ft | 19 kts | 70° |
| 2026-05-05 17:23 | 50.03977 | 8.55643 | 353 ft | 19 kts | 69° |
| 2026-05-05 17:24 | 50.04020 | 8.55828 | 352 ft | 18 kts | 70° |
| 2026-05-05 17:24 | 50.04059 | 8.55995 | 353 ft | 15 kts | 69° |
| 2026-05-05 17:24 | 50.04095 | 8.56141 | 354 ft | 14 kts | 70° |
| 2026-05-05 17:24 | 50.04126 | 8.56272 | 359 ft | 12 kts | 70° |
| 2026-05-05 17:25 | 50.04167 | 8.56447 | 356 ft | 22 kts | 69° |
| 2026-05-05 17:25 | 50.04205 | 8.56603 | 359 ft | 23 kts | 69° |
| 2026-05-05 17:25 | 50.04279 | 8.56923 | 359 ft | 25 kts | 70° |
| 2026-05-05 17:25 | 50.04337 | 8.57160 | 361 ft | 23 kts | 70° |
| 2026-05-05 17:26 | 50.04388 | 8.57382 | 365 ft | 20 kts | 68° |
| 2026-05-05 17:26 | 50.04461 | 8.57555 | 362 ft | 19 kts | 22° |
| 2026-05-05 17:26 | 50.04569 | 8.57509 | 361 ft | 16 kts | 328° |
| 2026-05-05 17:26 | 50.04607 | 8.57375 | 366 ft | 12 kts | 297° |
| 2026-05-05 17:27 | 50.04638 | 8.57286 | 360 ft | 7 kts | 298° |
| 2026-05-05 17:27 | 50.04648 | 8.57257 | 360 ft | 0 kts | 298° |
| 2026-05-05 17:27 | 50.04649 | 8.57254 | 360 ft | 0 kts | 298° |